Weather at Bessemer Airport

Public forecast

Using degrees Fahrenheit for public forecast. Weather courtesy of forecast.io.

Current aviation weather report (METAR) for Bessemer Airport

2024/07/22 09:56 (retrieved 22 minutes ago)

KEKY 220956Z AUTO 00000KT 10SM SCT011 BKN015 OVC020 21/21 A3003 RMK AO2 SLP017 T02060206

Closest aviation forecast (TAF) to Bessemer Airport

Closest forecast is Shelby County Airport, 10.9 nm (20.1 km) SE.

2024/07/22 08:27 Ammendment (retrieved 2 hours ago)

TAF AMD KEET 220824Z 2208/2306 00000KT P6SM BKN045 FM221000 20005KT P6SM BKN015 TEMPO 2211/2214 BKN007 FM221600 21007KT P6SM VCSH BKN035 PROB30 2219/2301 4SM TSRA BR OVC025CB FM230200 00000KT P6SM BKN080